sensor_id;sensor_type;location;lat;lon;timestamp;P1;durP1;ratioP1;P2;durP2;ratioP2
21661;SDS011;10992;48.170;8.596;2023-01-19T00:00:51;20.48;;;12.07;;
21661;SDS011;10992;48.170;8.596;2023-01-19T00:03:18;17.60;;;11.73;;
21661;SDS011;10992;48.170;8.596;2023-01-19T00:05:45;20.45;;;12.55;;
21661;SDS011;10992;48.170;8.596;2023-01-19T00:08:12;20.95;;;12.57;;
21661;SDS011;10992;48.170;8.596;2023-01-19T00:10:47;19.30;;;12.63;;
21661;SDS011;10992;48.170;8.596;2023-01-19T00:13:16;19.02;;;13.43;;
21661;SDS011;10992;48.170;8.596;2023-01-19T00:15:43;22.52;;;13.40;;
21661;SDS011;10992;48.170;8.596;2023-01-19T00:18:10;19.73;;;11.95;;
21661;SDS011;10992;48.170;8.596;2023-01-19T00:20:37;22.83;;;14.18;;
21661;SDS011;10992;48.170;8.596;2023-01-19T00:23:05;22.35;;;13.07;;
21661;SDS011;10992;48.170;8.596;2023-01-19T00:25:34;21.30;;;12.95;;
21661;SDS011;10992;48.170;8.596;2023-01-19T00:28:01;17.05;;;12.35;;
21661;SDS011;10992;48.170;8.596;2023-01-19T00:30:29;21.42;;;13.07;;
21661;SDS011;10992;48.170;8.596;2023-01-19T00:32:56;19.45;;;13.90;;
21661;SDS011;10992;48.170;8.596;2023-01-19T00:35:23;22.15;;;14.00;;
21661;SDS011;10992;48.170;8.596;2023-01-19T00:37:50;21.15;;;14.07;;
21661;SDS011;10992;48.170;8.596;2023-01-19T00:40:17;23.38;;;14.55;;
21661;SDS011;10992;48.170;8.596;2023-01-19T00:42:44;19.95;;;14.38;;
21661;SDS011;10992;48.170;8.596;2023-01-19T00:45:14;20.10;;;14.32;;
21661;SDS011;10992;48.170;8.596;2023-01-19T00:47:44;21.70;;;13.65;;
21661;SDS011;10992;48.170;8.596;2023-01-19T00:50:11;20.88;;;14.30;;
21661;SDS011;10992;48.170;8.596;2023-01-19T00:52:39;21.50;;;13.38;;
21661;SDS011;10992;48.170;8.596;2023-01-19T00:55:07;20.25;;;13.13;;
21661;SDS011;10992;48.170;8.596;2023-01-19T00:57:35;21.63;;;14.02;;
21661;SDS011;10992;48.170;8.596;2023-01-19T01:00:07;22.40;;;14.38;;
21661;SDS011;10992;48.170;8.596;2023-01-19T01:02:37;25.90;;;14.45;;
21661;SDS011;10992;48.170;8.596;2023-01-19T01:05:05;23.58;;;14.45;;
21661;SDS011;10992;48.170;8.596;2023-01-19T01:07:33;21.00;;;14.52;;
21661;SDS011;10992;48.170;8.596;2023-01-19T01:10:09;24.25;;;14.93;;
21661;SDS011;10992;48.170;8.596;2023-01-19T01:12:41;23.23;;;14.30;;
21661;SDS011;10992;48.170;8.596;2023-01-19T01:15:23;27.48;;;13.65;;
21661;SDS011;10992;48.170;8.596;2023-01-19T01:17:51;24.08;;;14.93;;
21661;SDS011;10992;48.170;8.596;2023-01-19T01:20:20;21.60;;;14.73;;
21661;SDS011;10992;48.170;8.596;2023-01-19T01:22:53;28.70;;;17.67;;
21661;SDS011;10992;48.170;8.596;2023-01-19T01:25:21;24.63;;;14.88;;
21661;SDS011;10992;48.170;8.596;2023-01-19T01:27:50;24.85;;;14.38;;
21661;SDS011;10992;48.170;8.596;2023-01-19T01:30:17;19.83;;;13.60;;
21661;SDS011;10992;48.170;8.596;2023-01-19T01:32:44;22.67;;;13.95;;
21661;SDS011;10992;48.170;8.596;2023-01-19T01:35:12;24.33;;;14.98;;
21661;SDS011;10992;48.170;8.596;2023-01-19T01:37:39;30.00;;;16.30;;
21661;SDS011;10992;48.170;8.596;2023-01-19T01:40:09;24.23;;;15.27;;
21661;SDS011;10992;48.170;8.596;2023-01-19T01:42:38;26.95;;;16.75;;
21661;SDS011;10992;48.170;8.596;2023-01-19T01:48:04;23.80;;;15.35;;
21661;SDS011;10992;48.170;8.596;2023-01-19T01:50:40;21.52;;;15.23;;
21661;SDS011;10992;48.170;8.596;2023-01-19T01:53:32;21.98;;;14.35;;
21661;SDS011;10992;48.170;8.596;2023-01-19T01:56:01;28.25;;;15.00;;
21661;SDS011;10992;48.170;8.596;2023-01-19T02:06:56;27.58;;;15.15;;
21661;SDS011;10992;48.170;8.596;2023-01-19T02:09:44;22.67;;;14.90;;
21661;SDS011;10992;48.170;8.596;2023-01-19T02:12:29;27.55;;;15.52;;
21661;SDS011;10992;48.170;8.596;2023-01-19T02:15:16;28.05;;;15.10;;
21661;SDS011;10992;48.170;8.596;2023-01-19T02:17:45;27.80;;;16.63;;
21661;SDS011;10992;48.170;8.596;2023-01-19T02:20:12;24.40;;;15.15;;
21661;SDS011;10992;48.170;8.596;2023-01-19T02:22:44;25.75;;;16.10;;
21661;SDS011;10992;48.170;8.596;2023-01-19T02:25:14;23.13;;;15.07;;
21661;SDS011;10992;48.170;8.596;2023-01-19T02:27:43;23.25;;;16.15;;
21661;SDS011;10992;48.170;8.596;2023-01-19T02:30:11;27.55;;;15.32;;
21661;SDS011;10992;48.170;8.596;2023-01-19T02:32:38;27.13;;;15.38;;
21661;SDS011;10992;48.170;8.596;2023-01-19T02:35:05;25.02;;;14.98;;
21661;SDS011;10992;48.170;8.596;2023-01-19T02:37:34;28.45;;;15.18;;
21661;SDS011;10992;48.170;8.596;2023-01-19T02:40:03;25.67;;;16.00;;
21661;SDS011;10992;48.170;8.596;2023-01-19T02:45:12;28.83;;;16.35;;
21661;SDS011;10992;48.170;8.596;2023-01-19T02:47:43;26.00;;;16.73;;
21661;SDS011;10992;48.170;8.596;2023-01-19T02:50:32;30.90;;;16.25;;
21661;SDS011;10992;48.170;8.596;2023-01-19T02:53:45;24.00;;;14.88;;
21661;SDS011;10992;48.170;8.596;2023-01-19T03:01:24;19.92;;;13.27;;
21661;SDS011;10992;48.170;8.596;2023-01-19T03:04:06;24.65;;;14.18;;
21661;SDS011;10992;48.170;8.596;2023-01-19T03:07:07;25.23;;;13.55;;
21661;SDS011;10992;48.170;8.596;2023-01-19T03:09:58;27.05;;;14.77;;
21661;SDS011;10992;48.170;8.596;2023-01-19T03:18:13;25.55;;;15.02;;
21661;SDS011;10992;48.170;8.596;2023-01-19T03:20:46;26.00;;;15.15;;
21661;SDS011;10992;48.170;8.596;2023-01-19T03:23:15;26.95;;;15.73;;
21661;SDS011;10992;48.170;8.596;2023-01-19T03:25:44;30.30;;;16.10;;
21661;SDS011;10992;48.170;8.596;2023-01-19T03:28:16;29.48;;;16.73;;
21661;SDS011;10992;48.170;8.596;2023-01-19T03:30:48;26.45;;;14.98;;
21661;SDS011;10992;48.170;8.596;2023-01-19T03:33:32;25.42;;;15.88;;
21661;SDS011;10992;48.170;8.596;2023-01-19T03:36:06;27.45;;;14.80;;
21661;SDS011;10992;48.170;8.596;2023-01-19T03:38:38;25.50;;;14.77;;
21661;SDS011;10992;48.170;8.596;2023-01-19T03:41:09;25.73;;;15.05;;
21661;SDS011;10992;48.170;8.596;2023-01-19T03:43:40;22.65;;;13.50;;
21661;SDS011;10992;48.170;8.596;2023-01-19T03:46:09;24.52;;;14.63;;
21661;SDS011;10992;48.170;8.596;2023-01-19T03:48:37;26.30;;;14.93;;
21661;SDS011;10992;48.170;8.596;2023-01-19T03:51:05;21.65;;;13.95;;
21661;SDS011;10992;48.170;8.596;2023-01-19T03:53:34;21.52;;;12.50;;
21661;SDS011;10992;48.170;8.596;2023-01-19T03:56:02;21.45;;;12.68;;
21661;SDS011;10992;48.170;8.596;2023-01-19T03:58:29;21.38;;;13.60;;
21661;SDS011;10992;48.170;8.596;2023-01-19T04:00:56;21.58;;;14.13;;
21661;SDS011;10992;48.170;8.596;2023-01-19T04:03:23;20.42;;;13.30;;
21661;SDS011;10992;48.170;8.596;2023-01-19T04:05:50;23.80;;;14.50;;
21661;SDS011;10992;48.170;8.596;2023-01-19T04:08:17;21.83;;;13.68;;
21661;SDS011;10992;48.170;8.596;2023-01-19T04:10:44;21.40;;;14.13;;
21661;SDS011;10992;48.170;8.596;2023-01-19T04:13:11;21.50;;;13.23;;
21661;SDS011;10992;48.170;8.596;2023-01-19T04:15:38;17.45;;;12.45;;
21661;SDS011;10992;48.170;8.596;2023-01-19T04:18:05;16.90;;;12.40;;
21661;SDS011;10992;48.170;8.596;2023-01-19T04:20:32;21.77;;;12.15;;
21661;SDS011;10992;48.170;8.596;2023-01-19T04:22:59;18.50;;;11.68;;
21661;SDS011;10992;48.170;8.596;2023-01-19T04:25:27;18.08;;;11.80;;
21661;SDS011;10992;48.170;8.596;2023-01-19T04:27:54;19.10;;;11.30;;
21661;SDS011;10992;48.170;8.596;2023-01-19T04:30:23;19.92;;;12.32;;
21661;SDS011;10992;48.170;8.596;2023-01-19T04:32:51;21.30;;;13.10;;
21661;SDS011;10992;48.170;8.596;2023-01-19T04:35:18;22.85;;;13.45;;
21661;SDS011;10992;48.170;8.596;2023-01-19T04:37:46;18.70;;;12.02;;
21661;SDS011;10992;48.170;8.596;2023-01-19T04:40:13;19.98;;;12.38;;
21661;SDS011;10992;48.170;8.596;2023-01-19T04:42:42;18.00;;;12.68;;
21661;SDS011;10992;48.170;8.596;2023-01-19T04:45:10;19.25;;;12.38;;
21661;SDS011;10992;48.170;8.596;2023-01-19T04:47:38;19.92;;;13.02;;
21661;SDS011;10992;48.170;8.596;2023-01-19T04:50:05;19.38;;;11.88;;
21661;SDS011;10992;48.170;8.596;2023-01-19T04:52:34;19.52;;;12.55;;
21661;SDS011;10992;48.170;8.596;2023-01-19T04:55:02;17.60;;;11.43;;
21661;SDS011;10992;48.170;8.596;2023-01-19T04:57:30;19.17;;;11.90;;
21661;SDS011;10992;48.170;8.596;2023-01-19T04:59:57;18.88;;;12.27;;
21661;SDS011;10992;48.170;8.596;2023-01-19T05:02:24;18.92;;;11.23;;
21661;SDS011;10992;48.170;8.596;2023-01-19T05:04:51;21.00;;;11.45;;
21661;SDS011;10992;48.170;8.596;2023-01-19T05:07:18;19.98;;;11.98;;
21661;SDS011;10992;48.170;8.596;2023-01-19T05:09:45;18.65;;;11.95;;
21661;SDS011;10992;48.170;8.596;2023-01-19T05:12:12;16.50;;;11.60;;
21661;SDS011;10992;48.170;8.596;2023-01-19T05:14:38;18.20;;;12.07;;
21661;SDS011;10992;48.170;8.596;2023-01-19T05:17:05;19.75;;;11.50;;
21661;SDS011;10992;48.170;8.596;2023-01-19T05:19:32;19.42;;;11.75;;
21661;SDS011;10992;48.170;8.596;2023-01-19T05:22:00;19.38;;;11.60;;
21661;SDS011;10992;48.170;8.596;2023-01-19T05:24:28;14.68;;;10.57;;
21661;SDS011;10992;48.170;8.596;2023-01-19T05:26:55;16.88;;;11.65;;
21661;SDS011;10992;48.170;8.596;2023-01-19T05:29:23;20.95;;;13.40;;
21661;SDS011;10992;48.170;8.596;2023-01-19T05:31:50;20.88;;;12.32;;
21661;SDS011;10992;48.170;8.596;2023-01-19T05:34:17;15.95;;;10.63;;
21661;SDS011;10992;48.170;8.596;2023-01-19T05:36:44;16.48;;;11.02;;
21661;SDS011;10992;48.170;8.596;2023-01-19T05:39:12;17.55;;;10.25;;
21661;SDS011;10992;48.170;8.596;2023-01-19T05:41:39;16.02;;;10.38;;
21661;SDS011;10992;48.170;8.596;2023-01-19T05:44:08;20.55;;;11.07;;
21661;SDS011;10992;48.170;8.596;2023-01-19T05:46:35;18.17;;;10.57;;
21661;SDS011;10992;48.170;8.596;2023-01-19T05:49:02;16.48;;;10.90;;
21661;SDS011;10992;48.170;8.596;2023-01-19T05:51:30;17.40;;;10.60;;
21661;SDS011;10992;48.170;8.596;2023-01-19T05:54:00;16.50;;;10.55;;
21661;SDS011;10992;48.170;8.596;2023-01-19T05:56:27;17.02;;;10.73;;
21661;SDS011;10992;48.170;8.596;2023-01-19T05:58:55;15.57;;;10.65;;
21661;SDS011;10992;48.170;8.596;2023-01-19T06:01:22;17.55;;;11.48;;
21661;SDS011;10992;48.170;8.596;2023-01-19T06:03:48;16.95;;;10.38;;
21661;SDS011;10992;48.170;8.596;2023-01-19T06:06:15;23.45;;;12.02;;
21661;SDS011;10992;48.170;8.596;2023-01-19T06:08:43;22.02;;;13.07;;
21661;SDS011;10992;48.170;8.596;2023-01-19T06:11:10;21.75;;;12.15;;
21661;SDS011;10992;48.170;8.596;2023-01-19T06:13:37;18.17;;;10.38;;
21661;SDS011;10992;48.170;8.596;2023-01-19T06:16:07;17.05;;;9.40;;
21661;SDS011;10992;48.170;8.596;2023-01-19T06:18:35;16.08;;;9.43;;
21661;SDS011;10992;48.170;8.596;2023-01-19T06:21:06;15.13;;;9.60;;
21661;SDS011;10992;48.170;8.596;2023-01-19T06:23:34;14.63;;;9.80;;
21661;SDS011;10992;48.170;8.596;2023-01-19T06:26:02;18.65;;;9.60;;
21661;SDS011;10992;48.170;8.596;2023-01-19T06:28:29;14.98;;;10.50;;
21661;SDS011;10992;48.170;8.596;2023-01-19T06:30:56;17.38;;;11.55;;
21661;SDS011;10992;48.170;8.596;2023-01-19T06:33:23;19.67;;;11.25;;
21661;SDS011;10992;48.170;8.596;2023-01-19T06:35:50;22.15;;;11.27;;
21661;SDS011;10992;48.170;8.596;2023-01-19T06:38:17;17.35;;;10.70;;
21661;SDS011;10992;48.170;8.596;2023-01-19T06:40:50;15.23;;;10.02;;
21661;SDS011;10992;48.170;8.596;2023-01-19T06:43:21;14.48;;;9.02;;
21661;SDS011;10992;48.170;8.596;2023-01-19T06:45:48;12.27;;;9.43;;
21661;SDS011;10992;48.170;8.596;2023-01-19T06:48:15;14.77;;;9.18;;
21661;SDS011;10992;48.170;8.596;2023-01-19T06:50:46;16.33;;;10.30;;
21661;SDS011;10992;48.170;8.596;2023-01-19T06:53:14;15.27;;;10.75;;
21661;SDS011;10992;48.170;8.596;2023-01-19T06:55:42;18.27;;;11.20;;
21661;SDS011;10992;48.170;8.596;2023-01-19T06:58:09;20.52;;;11.82;;
21661;SDS011;10992;48.170;8.596;2023-01-19T07:00:36;16.67;;;10.38;;
21661;SDS011;10992;48.170;8.596;2023-01-19T07:03:06;17.80;;;11.77;;
21661;SDS011;10992;48.170;8.596;2023-01-19T07:05:34;17.38;;;11.18;;
21661;SDS011;10992;48.170;8.596;2023-01-19T07:08:02;15.70;;;10.77;;
21661;SDS011;10992;48.170;8.596;2023-01-19T07:10:29;18.52;;;11.93;;
21661;SDS011;10992;48.170;8.596;2023-01-19T07:13:16;22.77;;;11.50;;
21661;SDS011;10992;48.170;8.596;2023-01-19T07:15:43;16.35;;;11.20;;
21661;SDS011;10992;48.170;8.596;2023-01-19T07:18:09;17.75;;;11.63;;
21661;SDS011;10992;48.170;8.596;2023-01-19T07:20:36;16.20;;;10.77;;
21661;SDS011;10992;48.170;8.596;2023-01-19T07:23:03;21.30;;;11.43;;
21661;SDS011;10992;48.170;8.596;2023-01-19T07:25:30;18.83;;;11.68;;
21661;SDS011;10992;48.170;8.596;2023-01-19T07:27:57;16.30;;;10.20;;
21661;SDS011;10992;48.170;8.596;2023-01-19T07:30:25;22.48;;;12.32;;
21661;SDS011;10992;48.170;8.596;2023-01-19T07:32:55;17.92;;;11.25;;
21661;SDS011;10992;48.170;8.596;2023-01-19T07:35:24;21.17;;;12.38;;
21661;SDS011;10992;48.170;8.596;2023-01-19T07:37:51;16.75;;;10.68;;
21661;SDS011;10992;48.170;8.596;2023-01-19T07:40:18;16.67;;;10.40;;
21661;SDS011;10992;48.170;8.596;2023-01-19T07:42:48;12.27;;;8.75;;
21661;SDS011;10992;48.170;8.596;2023-01-19T07:45:16;15.18;;;8.98;;
21661;SDS011;10992;48.170;8.596;2023-01-19T07:47:45;14.82;;;9.57;;
21661;SDS011;10992;48.170;8.596;2023-01-19T07:50:16;15.13;;;9.68;;
21661;SDS011;10992;48.170;8.596;2023-01-19T07:52:50;17.95;;;10.20;;
21661;SDS011;10992;48.170;8.596;2023-01-19T07:55:19;16.05;;;9.55;;
21661;SDS011;10992;48.170;8.596;2023-01-19T07:57:47;14.05;;;9.73;;
21661;SDS011;10992;48.170;8.596;2023-01-19T08:00:18;12.52;;;8.80;;
21661;SDS011;10992;48.170;8.596;2023-01-19T08:02:47;16.33;;;9.00;;
21661;SDS011;10992;48.170;8.596;2023-01-19T08:05:17;14.20;;;7.85;;
21661;SDS011;10992;48.170;8.596;2023-01-19T08:07:45;10.48;;;7.22;;
21661;SDS011;10992;48.170;8.596;2023-01-19T08:10:13;8.25;;;6.20;;
21661;SDS011;10992;48.170;8.596;2023-01-19T08:12:41;13.40;;;7.53;;
21661;SDS011;10992;48.170;8.596;2023-01-19T08:15:08;11.68;;;6.47;;
21661;SDS011;10992;48.170;8.596;2023-01-19T08:17:36;21.13;;;10.10;;
21661;SDS011;10992;48.170;8.596;2023-01-19T08:20:03;16.80;;;7.90;;
21661;SDS011;10992;48.170;8.596;2023-01-19T08:22:31;11.65;;;7.75;;
21661;SDS011;10992;48.170;8.596;2023-01-19T08:24:58;8.70;;;6.28;;
21661;SDS011;10992;48.170;8.596;2023-01-19T08:27:25;14.43;;;7.10;;
21661;SDS011;10992;48.170;8.596;2023-01-19T08:29:52;10.68;;;6.45;;
21661;SDS011;10992;48.170;8.596;2023-01-19T08:32:20;8.25;;;6.03;;
21661;SDS011;10992;48.170;8.596;2023-01-19T08:34:46;10.88;;;6.38;;
21661;SDS011;10992;48.170;8.596;2023-01-19T08:37:13;9.68;;;6.38;;
21661;SDS011;10992;48.170;8.596;2023-01-19T08:39:40;14.50;;;6.88;;
21661;SDS011;10992;48.170;8.596;2023-01-19T08:42:07;11.45;;;7.22;;
21661;SDS011;10992;48.170;8.596;2023-01-19T08:44:34;9.73;;;5.72;;
21661;SDS011;10992;48.170;8.596;2023-01-19T08:47:06;9.82;;;6.38;;
21661;SDS011;10992;48.170;8.596;2023-01-19T08:49:34;9.07;;;6.47;;
21661;SDS011;10992;48.170;8.596;2023-01-19T08:52:02;9.07;;;6.20;;
21661;SDS011;10992;48.170;8.596;2023-01-19T08:54:29;8.95;;;6.07;;
21661;SDS011;10992;48.170;8.596;2023-01-19T08:56:55;10.40;;;6.40;;
21661;SDS011;10992;48.170;8.596;2023-01-19T08:59:22;10.82;;;6.60;;
21661;SDS011;10992;48.170;8.596;2023-01-19T09:01:49;11.05;;;6.00;;
21661;SDS011;10992;48.170;8.596;2023-01-19T09:04:16;9.10;;;6.30;;
21661;SDS011;10992;48.170;8.596;2023-01-19T09:06:43;9.60;;;6.63;;
21661;SDS011;10992;48.170;8.596;2023-01-19T09:09:10;9.77;;;6.10;;
21661;SDS011;10992;48.170;8.596;2023-01-19T09:11:37;11.50;;;6.88;;
21661;SDS011;10992;48.170;8.596;2023-01-19T09:14:05;10.95;;;6.78;;
21661;SDS011;10992;48.170;8.596;2023-01-19T09:16:32;11.70;;;7.07;;
21661;SDS011;10992;48.170;8.596;2023-01-19T09:18:59;12.40;;;8.15;;
21661;SDS011;10992;48.170;8.596;2023-01-19T09:21:26;17.00;;;8.05;;
21661;SDS011;10992;48.170;8.596;2023-01-19T09:23:54;13.70;;;7.00;;
21661;SDS011;10992;48.170;8.596;2023-01-19T09:26:21;11.05;;;7.28;;
21661;SDS011;10992;48.170;8.596;2023-01-19T09:28:49;12.32;;;8.30;;
21661;SDS011;10992;48.170;8.596;2023-01-19T09:31:16;13.18;;;7.90;;
21661;SDS011;10992;48.170;8.596;2023-01-19T09:33:43;11.05;;;7.53;;
21661;SDS011;10992;48.170;8.596;2023-01-19T09:36:10;11.60;;;6.75;;
21661;SDS011;10992;48.170;8.596;2023-01-19T09:38:37;14.80;;;7.78;;
21661;SDS011;10992;48.170;8.596;2023-01-19T09:41:07;11.35;;;6.70;;
21661;SDS011;10992;48.170;8.596;2023-01-19T09:46:14;11.85;;;7.07;;
21661;SDS011;10992;48.170;8.596;2023-01-19T09:49:02;15.52;;;6.65;;
21661;SDS011;10992;48.170;8.596;2023-01-19T09:51:38;11.07;;;7.30;;
21661;SDS011;10992;48.170;8.596;2023-01-19T09:54:10;10.27;;;7.18;;
21661;SDS011;10992;48.170;8.596;2023-01-19T09:56:41;9.75;;;6.65;;
21661;SDS011;10992;48.170;8.596;2023-01-19T09:59:17;10.00;;;7.65;;
21661;SDS011;10992;48.170;8.596;2023-01-19T10:04:39;11.13;;;6.65;;
21661;SDS011;10992;48.170;8.596;2023-01-19T10:07:15;10.27;;;7.05;;
21661;SDS011;10992;48.170;8.596;2023-01-19T10:13:01;13.77;;;6.82;;
21661;SDS011;10992;48.170;8.596;2023-01-19T10:15:47;8.10;;;6.40;;
21661;SDS011;10992;48.170;8.596;2023-01-19T10:18:27;9.73;;;6.07;;
21661;SDS011;10992;48.170;8.596;2023-01-19T10:21:30;12.65;;;6.45;;
21661;SDS011;10992;48.170;8.596;2023-01-19T10:26:55;6.78;;;5.60;;
21661;SDS011;10992;48.170;8.596;2023-01-19T10:29:29;8.98;;;6.18;;
21661;SDS011;10992;48.170;8.596;2023-01-19T10:34:37;13.73;;;6.28;;
21661;SDS011;10992;48.170;8.596;2023-01-19T10:42:35;9.02;;;6.95;;
21661;SDS011;10992;48.170;8.596;2023-01-19T10:45:14;10.48;;;6.53;;
21661;SDS011;10992;48.170;8.596;2023-01-19T10:47:41;10.93;;;7.03;;
21661;SDS011;10992;48.170;8.596;2023-01-19T10:52:59;11.45;;;6.40;;
21661;SDS011;10992;48.170;8.596;2023-01-19T10:58:00;13.27;;;6.90;;
21661;SDS011;10992;48.170;8.596;2023-01-19T11:02:56;10.73;;;7.10;;
21661;SDS011;10992;48.170;8.596;2023-01-19T11:05:24;9.40;;;6.07;;
21661;SDS011;10992;48.170;8.596;2023-01-19T11:07:52;10.15;;;6.35;;
21661;SDS011;10992;48.170;8.596;2023-01-19T11:10:21;10.65;;;6.13;;
21661;SDS011;10992;48.170;8.596;2023-01-19T11:13:09;10.98;;;7.18;;
21661;SDS011;10992;48.170;8.596;2023-01-19T11:15:52;10.98;;;5.60;;
21661;SDS011;10992;48.170;8.596;2023-01-19T11:20:52;9.38;;;6.90;;
21661;SDS011;10992;48.170;8.596;2023-01-19T11:23:25;10.50;;;6.97;;
21661;SDS011;10992;48.170;8.596;2023-01-19T11:25:59;16.40;;;6.93;;
21661;SDS011;10992;48.170;8.596;2023-01-19T11:28:30;9.52;;;6.90;;
21661;SDS011;10992;48.170;8.596;2023-01-19T11:31:01;10.80;;;6.85;;
21661;SDS011;10992;48.170;8.596;2023-01-19T11:36:19;10.50;;;6.80;;
21661;SDS011;10992;48.170;8.596;2023-01-19T11:38:51;11.00;;;7.07;;
21661;SDS011;10992;48.170;8.596;2023-01-19T11:41:20;9.95;;;6.30;;
21661;SDS011;10992;48.170;8.596;2023-01-19T11:44:13;11.10;;;7.35;;
21661;SDS011;10992;48.170;8.596;2023-01-19T11:46:46;9.43;;;6.65;;
21661;SDS011;10992;48.170;8.596;2023-01-19T11:52:30;9.43;;;6.47;;
21661;SDS011;10992;48.170;8.596;2023-01-19T11:55:13;9.50;;;6.15;;
21661;SDS011;10992;48.170;8.596;2023-01-19T11:57:48;8.38;;;6.53;;
21661;SDS011;10992;48.170;8.596;2023-01-19T12:03:13;9.00;;;6.65;;
21661;SDS011;10992;48.170;8.596;2023-01-19T12:06:03;10.70;;;6.60;;
21661;SDS011;10992;48.170;8.596;2023-01-19T12:08:34;8.63;;;6.70;;
21661;SDS011;10992;48.170;8.596;2023-01-19T12:11:04;13.32;;;7.43;;
21661;SDS011;10992;48.170;8.596;2023-01-19T12:13:37;10.82;;;7.18;;
21661;SDS011;10992;48.170;8.596;2023-01-19T12:16:07;13.93;;;8.50;;
21661;SDS011;10992;48.170;8.596;2023-01-19T12:18:39;15.68;;;8.07;;
21661;SDS011;10992;48.170;8.596;2023-01-19T12:21:10;10.63;;;7.35;;
21661;SDS011;10992;48.170;8.596;2023-01-19T12:28:57;12.65;;;8.77;;
21661;SDS011;10992;48.170;8.596;2023-01-19T12:31:28;12.35;;;8.18;;
21661;SDS011;10992;48.170;8.596;2023-01-19T12:34:01;14.15;;;7.95;;
21661;SDS011;10992;48.170;8.596;2023-01-19T12:36:53;11.85;;;8.18;;
21661;SDS011;10992;48.170;8.596;2023-01-19T12:39:31;12.77;;;8.30;;
21661;SDS011;10992;48.170;8.596;2023-01-19T12:42:05;11.95;;;7.97;;
21661;SDS011;10992;48.170;8.596;2023-01-19T12:44:38;12.15;;;7.82;;
21661;SDS011;10992;48.170;8.596;2023-01-19T12:49:41;13.65;;;7.78;;
21661;SDS011;10992;48.170;8.596;2023-01-19T13:02:56;14.27;;;9.30;;
21661;SDS011;10992;48.170;8.596;2023-01-19T13:15:52;13.50;;;10.02;;
21661;SDS011;10992;48.170;8.596;2023-01-19T13:18:30;13.18;;;9.35;;
21661;SDS011;10992;48.170;8.596;2023-01-19T13:21:04;15.38;;;10.25;;
21661;SDS011;10992;48.170;8.596;2023-01-19T13:26:13;17.85;;;11.70;;
21661;SDS011;10992;48.170;8.596;2023-01-19T13:28:43;12.02;;;8.93;;
21661;SDS011;10992;48.170;8.596;2023-01-19T13:31:16;10.93;;;8.25;;
21661;SDS011;10992;48.170;8.596;2023-01-19T13:33:54;12.60;;;9.02;;
21661;SDS011;10992;48.170;8.596;2023-01-19T13:36:26;14.05;;;9.55;;
21661;SDS011;10992;48.170;8.596;2023-01-19T13:39:03;17.10;;;10.77;;
21661;SDS011;10992;48.170;8.596;2023-01-19T13:41:36;16.23;;;10.40;;
21661;SDS011;10992;48.170;8.596;2023-01-19T13:44:23;14.13;;;10.77;;
21661;SDS011;10992;48.170;8.596;2023-01-19T13:46:53;13.98;;;9.77;;
21661;SDS011;10992;48.170;8.596;2023-01-19T13:49:25;18.30;;;11.45;;
21661;SDS011;10992;48.170;8.596;2023-01-19T13:54:57;16.30;;;10.93;;
21661;SDS011;10992;48.170;8.596;2023-01-19T13:57:29;15.88;;;11.07;;
21661;SDS011;10992;48.170;8.596;2023-01-19T14:02:38;17.15;;;11.13;;
21661;SDS011;10992;48.170;8.596;2023-01-19T14:05:19;15.63;;;11.80;;
21661;SDS011;10992;48.170;8.596;2023-01-19T14:15:41;19.48;;;12.25;;
21661;SDS011;10992;48.170;8.596;2023-01-19T14:20:52;16.40;;;11.70;;
21661;SDS011;10992;48.170;8.596;2023-01-19T14:23:35;19.55;;;13.55;;
21661;SDS011;10992;48.170;8.596;2023-01-19T14:26:03;23.98;;;15.02;;
21661;SDS011;10992;48.170;8.596;2023-01-19T14:28:40;26.65;;;15.25;;
21661;SDS011;10992;48.170;8.596;2023-01-19T14:31:20;26.95;;;15.82;;
21661;SDS011;10992;48.170;8.596;2023-01-19T14:33:50;25.23;;;14.48;;
21661;SDS011;10992;48.170;8.596;2023-01-19T14:38:48;22.77;;;14.52;;
21661;SDS011;10992;48.170;8.596;2023-01-19T14:41:24;27.17;;;16.35;;
21661;SDS011;10992;48.170;8.596;2023-01-19T14:44:00;23.00;;;14.75;;
21661;SDS011;10992;48.170;8.596;2023-01-19T14:46:28;23.00;;;14.45;;
21661;SDS011;10992;48.170;8.596;2023-01-19T14:48:58;18.55;;;13.05;;
21661;SDS011;10992;48.170;8.596;2023-01-19T14:51:27;17.33;;;11.45;;
21661;SDS011;10992;48.170;8.596;2023-01-19T14:53:56;18.70;;;12.77;;
21661;SDS011;10992;48.170;8.596;2023-01-19T14:56:25;17.80;;;12.52;;
21661;SDS011;10992;48.170;8.596;2023-01-19T14:58:57;20.80;;;13.57;;
21661;SDS011;10992;48.170;8.596;2023-01-19T15:01:26;18.98;;;12.82;;
21661;SDS011;10992;48.170;8.596;2023-01-19T15:03:54;25.40;;;16.33;;
21661;SDS011;10992;48.170;8.596;2023-01-19T15:06:24;18.83;;;13.48;;
21661;SDS011;10992;48.170;8.596;2023-01-19T15:08:52;24.20;;;13.55;;
21661;SDS011;10992;48.170;8.596;2023-01-19T15:11:21;21.02;;;13.75;;
21661;SDS011;10992;48.170;8.596;2023-01-19T15:13:51;18.15;;;13.00;;
21661;SDS011;10992;48.170;8.596;2023-01-19T15:16:18;19.65;;;14.00;;
21661;SDS011;10992;48.170;8.596;2023-01-19T15:18:47;23.13;;;14.95;;
21661;SDS011;10992;48.170;8.596;2023-01-19T15:21:15;28.58;;;17.38;;
21661;SDS011;10992;48.170;8.596;2023-01-19T15:23:45;24.88;;;15.32;;
21661;SDS011;10992;48.170;8.596;2023-01-19T15:26:14;30.42;;;16.65;;
21661;SDS011;10992;48.170;8.596;2023-01-19T15:28:43;22.58;;;14.77;;
21661;SDS011;10992;48.170;8.596;2023-01-19T15:31:15;22.33;;;14.18;;
21661;SDS011;10992;48.170;8.596;2023-01-19T15:33:43;23.17;;;17.33;;
21661;SDS011;10992;48.170;8.596;2023-01-19T15:36:15;24.50;;;15.18;;
21661;SDS011;10992;48.170;8.596;2023-01-19T15:38:45;24.75;;;15.77;;
21661;SDS011;10992;48.170;8.596;2023-01-19T15:41:12;25.88;;;16.38;;
21661;SDS011;10992;48.170;8.596;2023-01-19T15:43:49;26.85;;;15.32;;
21661;SDS011;10992;48.170;8.596;2023-01-19T15:46:17;22.13;;;15.48;;
21661;SDS011;10992;48.170;8.596;2023-01-19T15:48:46;24.77;;;16.95;;
21661;SDS011;10992;48.170;8.596;2023-01-19T15:51:15;28.75;;;16.63;;
21661;SDS011;10992;48.170;8.596;2023-01-19T15:53:43;21.75;;;15.35;;
21661;SDS011;10992;48.170;8.596;2023-01-19T15:56:12;28.05;;;17.00;;
21661;SDS011;10992;48.170;8.596;2023-01-19T15:58:47;23.83;;;16.13;;
21661;SDS011;10992;48.170;8.596;2023-01-19T16:01:24;25.63;;;16.45;;
21661;SDS011;10992;48.170;8.596;2023-01-19T16:04:00;25.83;;;16.55;;
21661;SDS011;10992;48.170;8.596;2023-01-19T16:06:29;25.70;;;16.20;;
21661;SDS011;10992;48.170;8.596;2023-01-19T16:08:57;26.40;;;15.75;;
21661;SDS011;10992;48.170;8.596;2023-01-19T16:11:31;19.65;;;14.60;;
21661;SDS011;10992;48.170;8.596;2023-01-19T16:13:59;20.00;;;14.23;;
21661;SDS011;10992;48.170;8.596;2023-01-19T16:16:27;22.00;;;15.13;;
21661;SDS011;10992;48.170;8.596;2023-01-19T16:18:54;24.60;;;16.33;;
21661;SDS011;10992;48.170;8.596;2023-01-19T16:21:22;21.75;;;15.05;;
21661;SDS011;10992;48.170;8.596;2023-01-19T16:23:49;24.25;;;17.13;;
21661;SDS011;10992;48.170;8.596;2023-01-19T16:26:22;25.02;;;15.93;;
21661;SDS011;10992;48.170;8.596;2023-01-19T16:28:58;22.88;;;15.30;;
21661;SDS011;10992;48.170;8.596;2023-01-19T16:31:27;24.80;;;15.60;;
21661;SDS011;10992;48.170;8.596;2023-01-19T16:33:54;25.67;;;15.73;;
21661;SDS011;10992;48.170;8.596;2023-01-19T16:36:29;24.65;;;14.13;;
21661;SDS011;10992;48.170;8.596;2023-01-19T16:38:57;20.45;;;14.27;;